createdAt,value
2019-03-15T00:00:24.037Z,7.5
2019-03-15T00:03:54.069Z,6.89
2019-03-15T00:07:24.077Z,6.44
2019-03-15T00:10:54.069Z,5.31
2019-03-15T00:14:24.207Z,6.08
2019-03-15T00:17:54.217Z,5.25
2019-03-15T00:21:24.182Z,5.51
2019-03-15T00:24:54.259Z,4.65
2019-03-15T00:28:24.418Z,4.38
2019-03-15T00:31:54.508Z,4.5
2019-03-15T00:35:24.580Z,5.05
2019-03-15T00:38:54.768Z,7.22
2019-03-15T00:42:24.906Z,5.72
2019-03-15T00:45:54.989Z,6.8
2019-03-15T00:49:26.248Z,6.9
2019-03-15T00:52:56.329Z,4.65
2019-03-15T00:56:26.429Z,5.89
2019-03-15T00:59:56.478Z,9.2
2019-03-15T01:03:26.579Z,4.5
2019-03-15T01:06:56.639Z,7.07
2019-03-15T01:10:26.759Z,5.34
2019-03-15T01:13:56.960Z,6.81
2019-03-15T01:17:27.200Z,4.9
2019-03-15T01:20:57.180Z,5.19
2019-03-15T01:24:27.251Z,8.39
2019-03-15T01:27:57.271Z,5.54
2019-03-15T01:31:27.270Z,6.1
2019-03-15T01:34:57.362Z,5.11
2019-03-15T01:38:27.513Z,4.55
2019-03-15T01:41:57.661Z,5.53
2019-03-15T01:45:27.832Z,4.84
2019-03-15T01:48:57.892Z,6.26
2019-03-15T01:52:28.112Z,4.97
2019-03-15T01:55:58.224Z,5.04
2019-03-15T01:59:28.314Z,7.54
2019-03-15T02:00:16.494Z,5.54
2019-03-15T02:03:46.595Z,5.44
2019-03-15T02:07:16.813Z,6.2
2019-03-15T02:10:46.923Z,7.01
2019-03-15T02:14:17.004Z,5.75
2019-03-15T02:17:47.193Z,6.7
2019-03-15T02:21:17.259Z,6.61
2019-03-15T02:24:47.329Z,11.01
2019-03-15T02:28:17.488Z,4.74
2019-03-15T02:31:47.595Z,5.09
2019-03-15T02:35:17.681Z,5.25
2019-03-15T02:38:47.816Z,6.21
2019-03-15T02:42:17.915Z,6.26
2019-03-15T02:45:48.007Z,5.47
2019-03-15T02:49:18.176Z,6.51
2019-03-15T02:52:49.330Z,5.79
2019-03-15T02:56:19.483Z,5.79
2019-03-15T02:59:49.537Z,6.42
2019-03-15T03:03:20.720Z,8.26
2019-03-15T03:06:50.878Z,8.47
2019-03-15T03:10:21.084Z,7.61
2019-03-15T03:13:51.068Z,9.09
2019-03-15T03:17:21.078Z,6.81
2019-03-15T03:20:51.067Z,6.66
2019-03-15T03:24:21.259Z,5.06
2019-03-15T03:27:51.289Z,6.03
2019-03-15T03:31:21.474Z,7.97
2019-03-15T03:34:51.579Z,7.66
2019-03-15T03:38:21.600Z,11.93
2019-03-15T03:41:51.675Z,7
2019-03-15T03:45:23.335Z,7.31
2019-03-15T03:48:53.617Z,10.3
2019-03-15T03:52:23.659Z,9.28
2019-03-15T03:55:54.674Z,10.9
2019-03-15T03:59:24.850Z,8.8
2019-03-15T04:00:16.426Z,8.7
2019-03-15T04:03:46.490Z,7.26
2019-03-15T04:07:16.605Z,10.79
2019-03-15T04:10:46.679Z,12.3
2019-03-15T04:14:16.751Z,10.8
2019-03-15T04:17:47.149Z,7.84
2019-03-15T04:21:17.212Z,7.9
2019-03-15T04:24:47.242Z,9.1
2019-03-15T04:28:17.383Z,8.01
2019-03-15T04:31:47.363Z,8.59
2019-03-15T04:35:17.483Z,11.57
2019-03-15T04:38:47.573Z,7.5
2019-03-15T04:42:17.663Z,8.81
2019-03-15T04:45:47.814Z,7.89
2019-03-15T04:49:17.879Z,6.91
2019-03-15T04:52:47.864Z,9.36
2019-03-15T04:56:18.874Z,9.53
2019-03-15T04:59:48.924Z,10.94
2019-03-15T05:03:19.014Z,12.49
2019-03-15T05:06:49.155Z,8.75
2019-03-15T05:10:19.386Z,9.98
2019-03-15T05:13:49.415Z,10.29
2019-03-15T05:17:19.515Z,10.38
2019-03-15T05:20:49.765Z,9.96
2019-03-15T05:24:19.796Z,12.68
2019-03-15T05:27:49.796Z,11.43
2019-03-15T05:31:20.016Z,11.64
2019-03-15T05:34:50.117Z,9.75
2019-03-15T05:38:20.218Z,11.19
2019-03-15T05:41:50.260Z,15.25
2019-03-15T05:45:20.418Z,15.15
2019-03-15T05:48:50.523Z,13.64
2019-03-15T05:52:20.648Z,10.49
2019-03-15T05:55:50.698Z,10.05
2019-03-15T05:59:21.683Z,8.78
2019-03-15T06:00:16.772Z,12.22
2019-03-15T06:03:49.022Z,12.05
2019-03-15T06:07:19.419Z,11.41
2019-03-15T06:10:49.450Z,11.56
2019-03-15T06:14:19.471Z,12.1
2019-03-15T06:17:49.490Z,11.68
2019-03-15T06:21:19.620Z,13.76
2019-03-15T06:24:49.751Z,13.35
2019-03-15T06:28:19.821Z,11.81
2019-03-15T06:31:49.828Z,15.3
2019-03-15T06:35:20.065Z,11.14
2019-03-15T06:38:50.252Z,11.49
2019-03-15T06:42:20.301Z,10.01
2019-03-15T06:45:50.432Z,15.75
2019-03-15T06:49:21.157Z,14.05
2019-03-15T06:52:51.312Z,12.35
2019-03-15T06:56:21.463Z,14.81
2019-03-15T06:59:52.503Z,13.9
2019-03-15T07:03:22.593Z,14.55
2019-03-15T07:06:52.712Z,18.27
2019-03-15T07:10:22.934Z,16.23
2019-03-15T07:13:53.024Z,15.11
2019-03-15T07:17:23.054Z,12.62
2019-03-15T07:20:53.024Z,13.29
2019-03-15T07:24:25.482Z,13.21
2019-03-15T07:27:55.865Z,14.26
2019-03-15T07:31:26.036Z,12.44
2019-03-15T07:34:56.102Z,14.94
2019-03-15T07:38:26.153Z,12.45
2019-03-15T07:41:56.125Z,13.14
2019-03-15T07:45:26.260Z,19.91
2019-03-15T07:48:56.243Z,15.66
2019-03-15T07:52:26.467Z,14.61
2019-03-15T07:55:56.567Z,15.29
2019-03-15T07:59:27.949Z,20.58
2019-03-15T08:00:17.648Z,12.1
2019-03-15T08:03:47.646Z,16.74
2019-03-15T08:07:20.024Z,8.4
2019-03-15T08:10:50.539Z,9.94
2019-03-15T08:14:20.692Z,11.01
2019-03-15T08:17:50.637Z,13.45
2019-03-15T08:21:22.731Z,13.72
2019-03-15T08:24:52.971Z,15.14
2019-03-15T08:28:23.141Z,15.11
2019-03-15T08:31:53.262Z,11.07
2019-03-15T08:35:24.726Z,9.55
2019-03-15T08:38:54.862Z,18.06
2019-03-15T08:42:24.982Z,14.66
2019-03-15T08:45:55.002Z,9.91
2019-03-15T08:49:25.044Z,11.96
2019-03-15T08:52:55.081Z,11.26
2019-03-15T08:56:25.304Z,8.06
2019-03-15T08:59:57.710Z,10.56
2019-03-15T09:03:29.014Z,8.59
2019-03-15T09:06:59.024Z,10.38
2019-03-15T09:10:29.091Z,12.32
2019-03-15T09:13:59.135Z,10.19
2019-03-15T09:17:29.371Z,11.64
2019-03-15T09:20:59.438Z,10.97
2019-03-15T09:24:29.656Z,10.99
2019-03-15T09:27:59.706Z,8.85
2019-03-15T09:31:37.229Z,6.75
2019-03-15T09:35:16.987Z,9.2
2019-03-15T09:38:47.147Z,9.44
2019-03-15T09:42:17.192Z,8.79
2019-03-15T09:45:47.322Z,10.45
2019-03-15T09:49:17.471Z,11.61
2019-03-15T09:52:47.546Z,4.54
2019-03-15T09:56:17.649Z,6.06
2019-03-15T09:59:47.771Z,6.97
2019-03-15T10:00:16.119Z,10.94
2019-03-15T10:03:46.992Z,9.23
2019-03-15T10:07:17.236Z,8.4
2019-03-15T10:10:49.196Z,10.19
2019-03-15T10:14:19.541Z,12.61
2019-03-15T10:17:49.551Z,14.29
2019-03-15T10:21:19.673Z,26.35
2019-03-15T10:24:49.732Z,31.44
2019-03-15T10:28:19.722Z,20.45
2019-03-15T10:31:49.777Z,17.52
2019-03-15T10:35:19.903Z,15.56
2019-03-15T10:38:49.913Z,18.91
2019-03-15T10:42:19.990Z,15.96
2019-03-15T10:45:49.972Z,13.54
2019-03-15T10:49:20.104Z,17.85
2019-03-15T10:52:53.542Z,22.16
2019-03-15T10:56:24.000Z,34.69
2019-03-15T10:59:54.084Z,20.35
2019-03-15T11:03:24.132Z,17
2019-03-15T11:06:54.255Z,21.84
2019-03-15T11:10:24.349Z,23.93
2019-03-15T11:13:55.715Z,20.51
2019-03-15T11:17:25.888Z,23.1
2019-03-15T11:20:55.972Z,19.98
2019-03-15T11:24:26.097Z,22.96
2019-03-15T11:27:56.210Z,19.73
2019-03-15T11:31:26.224Z,25.99
2019-03-15T11:34:56.321Z,26.3
2019-03-15T11:38:26.423Z,22.6
2019-03-15T11:41:56.536Z,25.55
2019-03-15T11:45:26.514Z,19.19
2019-03-15T11:48:56.595Z,20.09
2019-03-15T11:52:26.689Z,27.24
2019-03-15T11:55:56.915Z,21.05
2019-03-15T11:59:27.094Z,23.05
2019-03-15T12:00:15.931Z,25.66
2019-03-15T12:03:52.921Z,19.61
2019-03-15T12:07:23.854Z,20.21
2019-03-15T12:10:53.896Z,23.91
2019-03-15T12:14:24.048Z,21.95
2019-03-15T12:17:54.076Z,24.55
2019-03-15T12:21:24.187Z,19.4
2019-03-15T12:24:54.243Z,19.12
2019-03-15T12:28:24.395Z,19.95
2019-03-15T12:31:54.423Z,20.31
2019-03-15T12:35:24.495Z,18.06
2019-03-15T12:38:54.517Z,17.39
2019-03-15T12:42:24.579Z,22.19
2019-03-15T12:45:54.564Z,14.76
2019-03-15T12:49:25.719Z,15.22
2019-03-15T12:52:55.906Z,18.7
2019-03-15T12:56:25.932Z,14.42
2019-03-15T12:59:55.969Z,14.77
2019-03-15T13:03:26.030Z,23.58
2019-03-15T13:06:56.102Z,21.09
2019-03-15T13:10:27.264Z,20.51
2019-03-15T13:13:57.316Z,20.26
2019-03-15T13:17:27.428Z,22.55
2019-03-15T13:20:57.561Z,19.46
2019-03-15T13:24:27.664Z,20.2
2019-03-15T13:27:57.667Z,15.85
2019-03-15T13:31:27.662Z,16.95
2019-03-15T13:34:57.718Z,22.38
2019-03-15T13:38:27.831Z,30.3
2019-03-15T13:41:57.886Z,26.4
2019-03-15T13:45:27.975Z,27.26
2019-03-15T13:48:58.029Z,18.68
2019-03-15T13:52:28.129Z,22.3
2019-03-15T13:55:58.293Z,23.29
2019-03-15T13:59:28.314Z,32.65
2019-03-15T14:00:16.447Z,27.19
2019-03-15T14:03:46.456Z,18.19
2019-03-15T14:07:19.838Z,20.4
2019-03-15T14:10:50.371Z,30.3
2019-03-15T14:14:20.652Z,23.01
2019-03-15T14:17:50.566Z,19.02
2019-03-15T14:21:20.566Z,21.75
2019-03-15T14:24:50.588Z,24.82
2019-03-15T14:28:20.610Z,27.7
2019-03-15T14:31:50.653Z,27.79
2019-03-15T14:35:20.835Z,24.82
2019-03-15T14:38:50.788Z,24.98
2019-03-15T14:42:21.099Z,27.44
2019-03-15T14:45:51.164Z,25.21
2019-03-15T14:49:21.272Z,32.54
2019-03-15T14:52:51.455Z,31.89
2019-03-15T14:56:21.518Z,27.16
2019-03-15T14:59:51.619Z,24.29
2019-03-15T15:03:21.651Z,23.12
2019-03-15T15:06:51.724Z,27.6
2019-03-15T15:10:21.916Z,20.04
2019-03-15T15:13:52.950Z,20.76
2019-03-15T15:17:23.021Z,22.34
2019-03-15T15:20:53.031Z,20.68
2019-03-15T15:24:23.084Z,22.67
2019-03-15T15:28:03.808Z,23.38
2019-03-15T15:31:34.718Z,19.04
2019-03-15T15:35:05.240Z,24.99
2019-03-15T15:38:35.316Z,18.91
2019-03-15T15:42:05.318Z,27.79
2019-03-15T15:45:35.436Z,21.58
2019-03-15T15:49:05.648Z,27.5
2019-03-15T15:52:35.915Z,21.34
2019-03-15T15:56:05.952Z,17.96
2019-03-15T15:59:36.165Z,28.2
2019-03-15T16:00:16.411Z,21.52
2019-03-15T16:03:46.636Z,22.65
2019-03-15T16:07:16.708Z,19.29
2019-03-15T16:10:46.691Z,27.71
2019-03-15T16:14:17.773Z,43.08
2019-03-15T16:17:47.774Z,36.71
2019-03-15T16:21:17.816Z,29.79
2019-03-15T16:24:47.928Z,20.19
2019-03-15T16:28:30.606Z,16.64
2019-03-15T16:32:01.735Z,18.15
2019-03-15T16:35:31.749Z,14.61
2019-03-15T16:39:04.149Z,16.23
2019-03-15T16:42:34.212Z,21.91
2019-03-15T16:46:04.371Z,14.83
2019-03-15T16:49:34.433Z,16.81
2019-03-15T16:53:04.505Z,13.85
2019-03-15T16:56:34.513Z,17.46
2019-03-15T17:00:05.009Z,17.06
2019-03-15T17:03:35.082Z,13.5
2019-03-15T17:07:05.103Z,13.72
2019-03-15T17:10:35.145Z,17.35
2019-03-15T17:14:05.166Z,16.73
2019-03-15T17:17:37.030Z,16.24
2019-03-15T17:21:07.020Z,14.24
2019-03-15T17:24:37.032Z,14.75
2019-03-15T17:28:07.024Z,16.79
2019-03-15T17:31:37.008Z,19.64
2019-03-15T17:35:07.954Z,15.24
2019-03-15T17:38:37.950Z,19.88
2019-03-15T17:42:07.899Z,19.67
2019-03-15T17:45:38.014Z,18.52
2019-03-15T17:49:08.048Z,16.91
2019-03-15T17:52:38.065Z,22.94
2019-03-15T17:56:08.120Z,15.62
2019-03-15T17:59:38.271Z,21.11
2019-03-15T18:00:22.272Z,18.65
2019-03-15T18:03:52.527Z,15.59
2019-03-15T18:07:22.597Z,15.05
2019-03-15T18:10:52.698Z,13.99
2019-03-15T18:14:22.789Z,17.02
2019-03-15T18:17:53.731Z,11.45
2019-03-15T18:21:23.965Z,11.8
2019-03-15T18:24:54.086Z,11.14
2019-03-15T18:28:24.057Z,10.81
2019-03-15T18:31:54.079Z,11.3
2019-03-15T18:35:33.660Z,13.46
2019-03-15T18:39:06.415Z,13.2
2019-03-15T18:42:36.432Z,12.69
2019-03-15T18:46:06.469Z,14.11
2019-03-15T18:49:36.589Z,10.95
2019-03-15T18:53:06.570Z,14.42
2019-03-15T18:56:36.642Z,9.53
2019-03-15T19:00:09.914Z,11.62
2019-03-15T19:03:39.926Z,9.68
2019-03-15T19:07:09.928Z,10.48
2019-03-15T19:10:39.911Z,13.73
2019-03-15T19:14:09.938Z,11.4
2019-03-15T19:17:40.131Z,12.2
2019-03-15T19:21:11.065Z,16.32
2019-03-15T19:24:41.030Z,14.94
2019-03-15T19:28:10.967Z,13.01
2019-03-15T19:31:41.046Z,17.5
2019-03-15T19:35:11.226Z,12.74
2019-03-15T19:38:41.328Z,10.23
2019-03-15T19:42:11.457Z,15.2
2019-03-15T19:45:41.505Z,14.32
2019-03-15T19:49:11.467Z,12.81
2019-03-15T19:52:41.808Z,11.24
2019-03-15T19:56:11.918Z,10.62
2019-03-15T19:59:42.098Z,11.6
2019-03-15T20:00:16.579Z,12.85
2019-03-15T20:03:46.660Z,11.98
2019-03-15T20:07:16.689Z,18.15
2019-03-15T20:10:46.782Z,15.4
2019-03-15T20:14:16.852Z,11.14
2019-03-15T20:17:46.998Z,17.33
2019-03-15T20:21:17.974Z,14
2019-03-15T20:24:48.137Z,11.74
2019-03-15T20:28:18.297Z,12
2019-03-15T20:31:48.373Z,13.7
2019-03-15T20:35:18.542Z,11.8
2019-03-15T20:38:48.626Z,13.67
2019-03-15T20:42:18.708Z,14.7
2019-03-15T20:45:48.882Z,12.86
2019-03-15T20:49:18.949Z,12.23
2019-03-15T20:52:49.087Z,13.11
2019-03-15T20:56:19.172Z,10.7
2019-03-15T20:59:49.193Z,15.71
2019-03-15T21:03:19.137Z,11.3
2019-03-15T21:06:49.199Z,16.9
2019-03-15T21:10:19.213Z,16.24
2019-03-15T21:13:49.236Z,15.26
2019-03-15T21:17:19.269Z,13.41
2019-03-15T21:20:49.352Z,13.69
2019-03-15T21:24:20.405Z,14.39
2019-03-15T21:27:54.036Z,13.82
2019-03-15T21:31:24.691Z,15.21
2019-03-15T21:34:54.685Z,12.69
2019-03-15T21:38:24.845Z,12.1
2019-03-15T21:41:54.961Z,10.04
2019-03-15T21:45:25.044Z,11.16
2019-03-15T21:48:55.027Z,7.61
2019-03-15T21:52:25.160Z,12.97
2019-03-15T21:55:55.183Z,11.73
2019-03-15T21:59:25.346Z,12.8
2019-03-15T22:00:16.220Z,14.56
2019-03-15T22:03:46.280Z,13.29
2019-03-15T22:07:16.393Z,13
2019-03-15T22:10:46.362Z,9.96
2019-03-15T22:14:16.419Z,12.41
2019-03-15T22:17:46.501Z,12.03
2019-03-15T22:21:16.579Z,10.16
2019-03-15T22:24:47.562Z,10.35
2019-03-15T22:28:17.582Z,11.32
2019-03-15T22:31:47.755Z,8.94
2019-03-15T22:35:17.928Z,10.47
2019-03-15T22:38:47.901Z,9.07
2019-03-15T22:42:18.063Z,10.82
2019-03-15T22:45:48.080Z,12.01
2019-03-15T22:49:18.067Z,3.21
2019-03-15T22:52:48.254Z,10.74
2019-03-15T22:56:18.356Z,13.09
2019-03-15T22:59:48.341Z,13.61
2019-03-15T23:03:18.672Z,10.29
2019-03-15T23:06:48.916Z,9.65
2019-03-15T23:10:18.989Z,9.96
2019-03-15T23:13:49.063Z,9.65
2019-03-15T23:17:19.156Z,9.39
2019-03-15T23:20:49.199Z,13.17
2019-03-15T23:24:19.302Z,9.36
2019-03-15T23:27:50.965Z,9.76
2019-03-15T23:31:20.968Z,10.19
2019-03-15T23:34:51.112Z,11.36
2019-03-15T23:38:21.143Z,11.86
2019-03-15T23:41:51.208Z,10.25
2019-03-15T23:45:21.251Z,10.14
2019-03-15T23:48:51.314Z,9.06
2019-03-15T23:52:21.479Z,13.03
2019-03-15T23:55:54.727Z,12.28
2019-03-15T23:59:24.994Z,12.38
